createdAt,value
2023-02-23T00:06:44.367Z,9.27
2023-02-23T00:16:47.263Z,9.22
2023-02-23T00:26:51.797Z,9.22
2023-02-23T00:36:55.590Z,9.27
2023-02-23T00:46:59.614Z,9.14
2023-02-23T00:57:02.237Z,9.11
2023-02-23T01:07:06.710Z,9.05
2023-02-23T01:17:09.317Z,8.93
2023-02-23T01:27:13.680Z,9.25
2023-02-23T01:37:16.439Z,9.10
2023-02-23T01:47:20.684Z,9.05
2023-02-23T01:57:26.914Z,9.05
2023-02-23T02:07:34.998Z,9.12
2023-02-23T02:17:45.016Z,9.02
2023-02-23T02:28:29.604Z,9.02
2023-02-23T02:38:50.519Z,9.02
2023-02-23T02:49:00.421Z,9.06
2023-02-23T02:59:06.047Z,8.97
2023-02-23T03:09:35.859Z,9.09
2023-02-23T03:20:06.487Z,9.04
2023-02-23T03:30:31.910Z,8.97
2023-02-23T03:40:57.588Z,8.75
2023-02-23T03:51:22.434Z,9.03
2023-02-23T04:01:46.912Z,8.95
2023-02-23T04:12:16.752Z,9.06
2023-02-23T04:22:21.267Z,9.11
2023-02-23T04:32:23.975Z,9.15
2023-02-23T04:42:28.706Z,8.94
2023-02-23T04:52:31.344Z,8.74
2023-02-23T05:02:35.295Z,8.90
2023-02-23T05:12:38.057Z,8.80
2023-02-23T05:22:42.658Z,8.85
2023-02-23T05:32:45.388Z,9.03
2023-02-23T05:42:49.328Z,8.87
2023-02-23T05:52:51.934Z,8.88
2023-02-23T06:02:56.242Z,8.80
2023-02-23T06:12:58.897Z,9.04
2023-02-23T06:23:02.889Z,9.02
2023-02-23T06:33:06.105Z,9.00
2023-02-23T06:43:10.186Z,9.03
2023-02-23T06:53:12.820Z,8.98
2023-02-23T07:03:17.079Z,9.07
2023-02-23T07:13:20.442Z,8.80
2023-02-23T07:23:24.887Z,8.93
2023-02-23T07:33:27.645Z,8.95
2023-02-23T07:43:32.008Z,8.95
2023-02-23T07:53:34.597Z,8.93
2023-02-23T08:03:38.737Z,9.00
2023-02-23T08:13:41.374Z,9.04
2023-02-23T08:23:45.461Z,9.14
2023-02-23T08:33:48.231Z,9.17
2023-02-23T08:43:52.239Z,9.16
2023-02-23T08:53:57.092Z,9.31
2023-02-23T09:04:01.826Z,9.18
2023-02-23T09:14:04.591Z,9.44
2023-02-23T09:24:11.217Z,9.47
2023-02-23T09:34:13.977Z,9.27
2023-02-23T09:44:26.204Z,9.33
2023-02-23T09:54:33.522Z,9.46
2023-02-23T10:04:43.651Z,9.46
2023-02-23T10:15:06.390Z,9.37
2023-02-23T10:25:14.645Z,9.30
2023-02-23T10:35:24.563Z,9.35
2023-02-23T10:45:30.350Z,9.37
2023-02-23T10:55:34.080Z,9.44
2023-02-23T11:05:46.293Z,9.41
2023-02-23T11:15:51.125Z,9.49
2023-02-23T11:25:56.714Z,9.80
2023-02-23T11:36:01.603Z,10.19
2023-02-23T11:46:05.919Z,10.12
2023-02-23T11:56:11.136Z,9.86
2023-02-23T12:06:30.610Z,10.08
2023-02-23T12:16:38.491Z,10.46
2023-02-23T12:26:51.407Z,10.49
2023-02-23T12:36:58.844Z,10.44
2023-02-23T12:47:08.677Z,10.24
2023-02-23T12:57:23.712Z,10.23
2023-02-23T13:07:34.976Z,10.20
2023-02-23T13:17:42.107Z,10.21
2023-02-23T13:27:52.328Z,10.56
2023-02-23T13:38:00.964Z,10.56
2023-02-23T13:48:13.442Z,10.60
2023-02-23T13:58:18.995Z,10.43
2023-02-23T14:08:28.026Z,10.35
2023-02-23T14:18:33.558Z,9.82
2023-02-23T14:28:39.175Z,9.79
2023-02-23T14:38:47.929Z,9.37
2023-02-23T14:49:01.394Z,8.87
2023-02-23T14:59:08.352Z,8.63
2023-02-23T15:09:18.820Z,8.34
2023-02-23T15:19:24.630Z,8.35
2023-02-23T15:29:33.170Z,8.11
2023-02-23T15:39:38.653Z,8.11
2023-02-23T15:49:42.726Z,8.19
2023-02-23T15:59:47.679Z,8.02
2023-02-23T16:09:54.437Z,8.22
2023-02-23T16:20:11.204Z,8.06
2023-02-23T16:30:23.208Z,7.99
2023-02-23T16:40:26.072Z,7.87
2023-02-23T16:50:30.389Z,7.75
2023-02-23T17:00:34.306Z,7.75
2023-02-23T17:10:41.228Z,7.59
2023-02-23T17:20:44.178Z,7.46
2023-02-23T17:30:48.598Z,7.29
2023-02-23T17:40:51.435Z,7.31
2023-02-23T17:51:00.886Z,7.26
2023-02-23T18:01:05.608Z,7.25
2023-02-23T18:11:10.407Z,7.17
2023-02-23T18:21:15.459Z,6.97
2023-02-23T18:31:22.228Z,6.79
2023-02-23T18:41:28.602Z,6.45
2023-02-23T18:51:33.289Z,6.35
2023-02-23T19:01:37.560Z,6.08
2023-02-23T19:11:43.566Z,5.84
2023-02-23T19:21:47.320Z,5.72
2023-02-23T19:31:51.725Z,5.68
2023-02-23T19:41:54.431Z,5.69
2023-02-23T19:51:58.376Z,5.78
2023-02-23T20:02:01.000Z,6.00
2023-02-23T20:12:05.737Z,6.11
2023-02-23T20:22:08.939Z,6.11
2023-02-23T20:32:12.992Z,6.00
2023-02-23T20:42:15.659Z,5.98
2023-02-23T20:52:19.627Z,6.06
2023-02-23T21:02:22.322Z,6.10
2023-02-23T21:12:26.965Z,5.93
2023-02-23T21:22:29.581Z,5.98
2023-02-23T21:32:35.211Z,5.89
2023-02-23T21:42:39.350Z,5.91
2023-02-23T21:52:45.426Z,5.86
2023-02-23T22:02:48.417Z,5.70
2023-02-23T22:12:55.806Z,5.83
2023-02-23T22:22:58.612Z,5.80
2023-02-23T22:33:02.691Z,5.83
2023-02-23T22:43:08.729Z,5.83
2023-02-23T22:53:12.824Z,5.80
2023-02-23T23:03:15.452Z,5.89
2023-02-23T23:13:19.518Z,5.92
2023-02-23T23:23:25.925Z,5.80
2023-02-23T23:33:30.501Z,5.84
2023-02-23T23:43:36.864Z,5.83
2023-02-23T23:53:40.878Z,5.89
